Time;durP1;ratioP1;P1;durP2;ratioP2;P2;SDS_P1;SDS_P2;PMS_P1;PMS_P2;Temp;Humidity;BMP_temperature;BMP_pressure;BME280_temperature;BME280_humidity;BME280_pressure;Samples;Min_cycle;Max_cycle;Signal;HPM_P1;HPM_P2
2022/10/16 00:04:37;;;;;;;4.10;2.10;;;15.70;99.90;;;;;;10388126;28;20228;-69
2022/10/16 00:09:37;;;;;;;3.57;2.40;;;15.70;99.90;;;;;;10400902;28;20228;-69
2022/10/16 00:14:40;;;;;;;3.87;2.50;;;15.70;99.90;;;;;;10388344;28;20221;-69
2022/10/16 00:19:41;;;;;;;2.70;2.50;;;15.70;99.90;;;;;;10394363;28;20240;-69
2022/10/16 00:24:41;;;;;;;3.60;2.40;;;15.70;99.90;;;;;;10388874;28;20255;-69
2022/10/16 00:29:43;;;;;;;4.17;2.17;;;15.70;99.90;;;;;;10385858;28;20235;-70
2022/10/16 00:34:43;;;;;;;2.93;1.80;;;15.70;99.90;;;;;;10402516;28;20224;-70
2022/10/16 00:39:44;;;;;;;3.93;1.97;;;15.70;99.90;;;;;;10413163;28;20220;-69
2022/10/16 00:44:47;;;;;;;2.87;1.60;;;15.70;99.90;;;;;;10407219;28;20215;-73
2022/10/16 00:49:52;;;;;;;2.50;1.60;;;15.70;99.90;;;;;;10410081;28;20267;-71
2022/10/16 00:54:54;;;;;;;8.90;2.10;;;15.60;99.90;;;;;;10396361;28;20216;-74
2022/10/16 00:59:56;;;;;;;1.93;1.40;;;15.60;99.90;;;;;;10439747;28;20392;-74
2022/10/16 01:04:58;;;;;;;2.03;1.20;;;15.60;99.90;;;;;;10404230;28;20285;-73
2022/10/16 01:10:20;;;;;;;4.47;1.13;;;15.50;99.90;;;;;;10393402;28;20267;-75
2022/10/16 01:16:03;;;;;;;3.03;1.10;;;15.50;99.90;;;;;;10400729;28;20228;-75
2022/10/16 01:21:09;;;;;;;1.00;0.70;;;15.50;99.90;;;;;;10364836;28;20226;-73
2022/10/16 01:26:28;;;;;;;1.77;0.80;;;15.50;99.90;;;;;;10399193;28;20219;-73
2022/10/16 01:31:34;;;;;;;1.30;0.70;;;15.40;99.90;;;;;;10390531;28;20235;-72
2022/10/16 01:36:44;;;;;;;1.67;0.60;;;15.40;99.90;;;;;;10402559;28;20767;-72
2022/10/16 01:41:52;;;;;;;2.23;0.90;;;15.40;99.90;;;;;;10387489;28;20259;-72
2022/10/16 01:46:55;;;;;;;1.77;0.93;;;15.40;99.90;;;;;;10401585;28;20232;-72
2022/10/16 01:51:58;;;;;;;1.27;0.70;;;15.50;99.90;;;;;;10392577;28;20299;-73
2022/10/16 01:57:00;;;;;;;3.30;1.00;;;15.50;99.90;;;;;;10395357;28;20232;-74
2022/10/16 02:02:06;;;;;;;3.43;1.00;;;15.50;99.90;;;;;;10392737;28;20726;-73
2022/10/16 02:07:06;;;;;;;1.53;1.03;;;15.50;99.90;;;;;;10399237;28;20232;-72
2022/10/16 02:12:17;;;;;;;3.83;1.10;;;15.60;99.90;;;;;;10392841;28;20236;-73
2022/10/16 02:17:19;;;;;;;1.97;1.33;;;15.60;99.90;;;;;;10397193;28;20231;-74
2022/10/16 02:22:41;;;;;;;6.07;1.80;;;15.60;99.90;;;;;;10389160;28;20250;-71
2022/10/16 02:28:05;;;;;;;2.47;1.83;;;15.60;99.90;;;;;;10400407;28;20234;-73
2022/10/16 02:33:09;;;;;;;5.93;1.90;;;15.60;99.90;;;;;;10397138;28;20219;-73
2022/10/16 02:38:10;;;;;;;3.60;2.00;;;15.70;99.90;;;;;;10396074;28;20227;-73
2022/10/16 02:43:11;;;;;;;2.13;1.90;;;15.70;99.90;;;;;;10388511;28;20584;-73
2022/10/16 02:48:12;;;;;;;6.07;2.30;;;15.70;99.90;;;;;;10399048;28;20319;-73
2022/10/16 02:53:12;;;;;;;4.17;2.47;;;15.70;99.90;;;;;;10391048;28;20736;-73
2022/10/16 02:58:15;;;;;;;5.03;3.20;;;15.70;99.90;;;;;;10392145;28;20231;-73
2022/10/16 03:03:16;;;;;;;4.53;3.60;;;15.80;99.90;;;;;;10388736;28;20227;-74
2022/10/16 03:08:17;;;;;;;5.47;3.43;;;15.80;99.90;;;;;;10391111;28;20224;-72
2022/10/16 03:13:20;;;;;;;5.27;3.37;;;15.80;99.90;;;;;;10389328;28;20604;-72
2022/10/16 03:18:20;;;;;;;5.90;3.40;;;15.70;99.90;;;;;;10405627;28;20275;-71
2022/10/16 03:23:21;;;;;;;5.47;3.47;;;15.80;99.90;;;;;;10394546;28;20796;-72
2022/10/16 03:28:22;;;;;;;3.43;2.70;;;15.80;99.90;;;;;;10390311;28;20289;-71
2022/10/16 03:33:22;;;;;;;5.33;2.63;;;15.80;99.90;;;;;;10386639;28;20631;-71
2022/10/16 03:38:23;;;;;;;5.40;2.60;;;15.80;99.90;;;;;;10390546;28;20227;-72
2022/10/16 03:43:23;;;;;;;8.90;3.30;;;15.80;99.90;;;;;;10398548;28;20706;-73
2022/10/16 03:48:24;;;;;;;6.17;3.00;;;15.90;99.90;;;;;;10394343;28;20273;-72
2022/10/16 03:53:25;;;;;;;8.73;3.87;;;15.80;99.90;;;;;;10388461;28;20220;-71
2022/10/16 03:58:25;;;;;;;6.50;3.10;;;15.80;99.90;;;;;;10397138;28;20227;-71
2022/10/16 04:03:26;;;;;;;6.17;3.67;;;15.80;99.90;;;;;;10396438;28;20249;-73
2022/10/16 04:08:26;;;;;;;5.60;3.73;;;15.80;99.90;;;;;;10394070;28;20566;-73
2022/10/16 04:13:27;;;;;;;3.80;3.40;;;15.80;99.90;;;;;;10402517;28;20216;-71
2022/10/16 04:18:27;;;;;;;8.30;3.93;;;15.80;99.90;;;;;;10392203;28;20324;-71
2022/10/16 04:23:28;;;;;;;10.40;4.13;;;15.80;99.90;;;;;;10395409;28;20244;-71
2022/10/16 04:28:29;;;;;;;6.47;3.57;;;15.70;99.90;;;;;;10397321;28;20891;-72
2022/10/16 04:33:30;;;;;;;7.27;3.57;;;15.70;99.90;;;;;;10401258;28;20279;-73
2022/10/16 04:38:30;;;;;;;5.10;3.60;;;15.70;99.90;;;;;;10395908;28;20221;-74
2022/10/16 04:43:31;;;;;;;6.97;3.60;;;15.70;99.90;;;;;;10395440;28;20219;-72
2022/10/16 04:48:32;;;;;;;5.53;3.47;;;15.70;99.90;;;;;;10391127;28;20455;-74
2022/10/16 04:53:36;;;;;;;4.10;3.63;;;15.70;99.90;;;;;;10397550;28;20303;-73
2022/10/16 04:58:36;;;;;;;6.70;3.73;;;15.60;99.90;;;;;;10395808;28;20692;-71
2022/10/16 05:03:37;;;;;;;5.70;4.20;;;15.60;99.90;;;;;;10404577;28;20307;-74
2022/10/16 05:08:38;;;;;;;6.73;3.87;;;15.70;99.90;;;;;;10393991;28;20610;-74
2022/10/16 05:13:38;;;;;;;4.50;3.33;;;15.60;99.90;;;;;;10396403;28;20216;-73
2022/10/16 05:18:42;;;;;;;3.80;3.50;;;15.60;99.90;;;;;;10385915;28;20232;-73
2022/10/16 05:23:42;;;;;;;6.47;3.57;;;15.50;99.90;;;;;;10403886;28;20221;-73
2022/10/16 05:28:43;;;;;;;6.60;3.60;;;15.50;99.90;;;;;;10399095;28;20232;-72
2022/10/16 05:33:44;;;;;;;4.57;3.30;;;15.50;99.90;;;;;;10395491;28;20246;-72
2022/10/16 05:38:44;;;;;;;5.07;3.83;;;15.40;99.90;;;;;;10402626;28;20219;-73
2022/10/16 05:43:45;;;;;;;4.27;3.60;;;15.40;99.90;;;;;;10388943;28;20304;-72
2022/10/16 05:48:45;;;;;;;3.73;3.37;;;15.20;99.90;;;;;;10392005;28;20292;-72
2022/10/16 05:53:46;;;;;;;5.23;3.80;;;15.20;99.90;;;;;;10397865;28;20725;-74
2022/10/16 05:58:47;;;;;;;5.47;3.47;;;15.20;99.90;;;;;;10416860;28;20714;-74
2022/10/16 06:03:47;;;;;;;6.83;4.33;;;15.20;99.90;;;;;;10403107;28;20226;-72
2022/10/16 06:08:49;;;;;;;9.63;3.77;;;15.30;99.90;;;;;;10392968;28;20224;-73
2022/10/16 06:13:51;;;;;;;5.77;3.60;;;15.40;99.90;;;;;;10392696;28;20220;-72
2022/10/16 06:18:53;;;;;;;6.03;3.37;;;15.40;99.90;;;;;;10397663;28;20683;-75
2022/10/16 06:23:57;;;;;;;4.33;3.13;;;15.50;99.90;;;;;;10415232;28;20278;-75
2022/10/16 06:28:59;;;;;;;3.40;3.00;;;15.50;99.90;;;;;;10396491;28;20247;-71
2022/10/16 06:34:00;;;;;;;5.00;3.10;;;15.60;99.90;;;;;;10385380;28;20217;-71
2022/10/16 06:39:01;;;;;;;3.63;2.73;;;15.70;99.90;;;;;;10395265;28;20661;-71
2022/10/16 06:44:05;;;;;;;2.60;2.40;;;15.80;99.90;;;;;;10392442;28;20302;-72
2022/10/16 06:49:05;;;;;;;6.10;2.93;;;15.90;99.90;;;;;;10395764;28;20232;-74
2022/10/16 06:54:07;;;;;;;4.10;2.73;;;15.90;99.90;;;;;;10393069;28;20285;-74
2022/10/16 06:59:07;;;;;;;4.80;2.60;;;16.00;99.90;;;;;;10394650;28;20702;-74
2022/10/16 07:04:08;;;;;;;3.73;2.40;;;16.10;99.90;;;;;;10398058;28;20306;-74
2022/10/16 07:09:10;;;;;;;4.67;2.83;;;16.30;99.90;;;;;;10389696;28;20231;-74
2022/10/16 07:14:21;;;;;;;5.23;2.43;;;16.40;99.90;;;;;;10388739;28;20208;-74
2022/10/16 07:19:22;;;;;;;5.17;2.70;;;16.60;99.90;;;;;;10397805;28;20225;-74
2022/10/16 07:24:22;;;;;;;3.97;2.17;;;16.80;99.90;;;;;;10391418;28;20216;-72
2022/10/16 07:29:23;;;;;;;4.83;2.40;;;16.90;99.90;;;;;;10387350;28;20228;-75
2022/10/16 07:34:24;;;;;;;4.33;2.40;;;16.90;99.90;;;;;;10393523;28;20216;-71
2022/10/16 07:39:24;;;;;;;3.20;1.70;;;17.00;99.90;;;;;;10385603;28;20228;-71
2022/10/16 07:44:25;;;;;;;2.77;2.10;;;17.10;99.90;;;;;;10389393;28;20312;-73
2022/10/16 07:49:25;;;;;;;8.70;2.10;;;17.10;99.90;;;;;;10385037;28;20263;-71
2022/10/16 07:54:26;;;;;;;4.00;2.20;;;17.20;99.90;;;;;;10405796;28;20706;-71
2022/10/16 07:59:26;;;;;;;5.27;2.37;;;17.10;99.90;;;;;;10398703;28;20235;-75
2022/10/16 08:04:27;;;;;;;3.87;2.13;;;17.10;99.90;;;;;;10383749;28;20225;-75
2022/10/16 08:09:28;;;;;;;5.07;1.93;;;17.20;99.90;;;;;;10390207;28;20307;-74
2022/10/16 08:14:30;;;;;;;7.30;1.80;;;17.20;99.90;;;;;;10394012;28;20217;-75
2022/10/16 08:19:34;;;;;;;7.73;2.10;;;17.40;99.90;;;;;;10388261;28;20208;-75
2022/10/16 08:24:34;;;;;;;4.77;1.73;;;17.60;99.90;;;;;;10393773;28;20613;-73
2022/10/16 08:29:35;;;;;;;6.77;1.80;;;17.60;99.90;;;;;;10383135;28;20229;-74
2022/10/16 08:34:35;;;;;;;9.43;2.30;;;17.60;99.90;;;;;;10392510;28;20214;-74
2022/10/16 08:39:36;;;;;;;6.03;3.10;;;17.30;99.90;;;;;;10387854;28;20320;-74
2022/10/16 08:44:52;;;;;;;4.13;2.40;;;17.10;99.90;;;;;;10399292;28;20219;-73
2022/10/16 08:50:00;;;;;;;9.93;2.70;;;16.80;99.90;;;;;;10392539;28;20234;-72
2022/10/16 08:55:01;;;;;;;3.47;2.27;;;16.70;99.90;;;;;;10393338;28;20225;-72
2022/10/16 09:00:23;;;;;;;5.27;3.20;;;16.60;99.90;;;;;;10396567;28;20810;-69
2022/10/16 09:05:38;;;;;;;4.33;2.70;;;16.50;99.90;;;;;;10390157;28;20239;-73
2022/10/16 09:11:09;;;;;;;4.77;2.80;;;16.50;99.90;;;;;;10393645;28;20223;-73
2022/10/16 09:16:24;;;;;;;5.30;2.60;;;16.50;99.90;;;;;;10403646;28;20223;-73
2022/10/16 09:21:39;;;;;;;6.93;2.87;;;16.60;99.90;;;;;;10397212;28;20216;-72
2022/10/16 09:26:40;;;;;;;6.23;2.00;;;17.00;99.90;;;;;;10404275;28;20274;-71
2022/10/16 09:31:42;;;;;;;2.37;2.07;;;17.90;99.90;;;;;;10397425;28;20212;-74
2022/10/16 09:36:44;;;;;;;5.03;2.00;;;18.40;99.90;;;;;;10386956;28;20312;-73
2022/10/16 09:41:45;;;;;;;4.00;1.97;;;18.90;99.90;;;;;;10394375;28;20320;-73
2022/10/16 09:46:46;;;;;;;3.70;2.40;;;19.50;99.90;;;;;;10389122;28;20225;-75
2022/10/16 09:51:47;;;;;;;5.20;2.73;;;20.50;99.90;;;;;;10409019;28;20206;-72
2022/10/16 09:56:53;;;;;;;3.63;1.60;;;21.30;99.90;;;;;;10397343;28;20214;-74
2022/10/16 10:02:03;;;;;;;2.27;1.80;;;24.50;99.90;;;;;;10394436;28;20586;-75
2022/10/16 10:07:03;;;;;;;5.13;1.80;;;28.20;99.90;;;;;;10410382;28;20221;-69
2022/10/16 10:12:06;;;;;;;3.53;1.70;;;28.40;99.90;;;;;;10407373;28;20687;-71
2022/10/16 10:17:14;;;;;;;2.03;1.73;;;30.30;99.90;;;;;;10384544;28;20223;-74
2022/10/16 10:22:32;;;;;;;3.80;1.97;;;29.20;99.90;;;;;;10392889;28;20213;-70
2022/10/16 10:27:58;;;;;;;6.27;1.90;;;28.80;99.90;;;;;;10397942;28;20236;-68
2022/10/16 10:33:35;;;;;;;5.40;1.83;;;30.70;99.40;;;;;;10393020;28;20215;-70
2022/10/16 10:38:56;;;;;;;2.07;0.90;;;34.40;84.50;;;;;;10402617;28;20217;-67
2022/10/16 10:44:11;;;;;;;4.63;1.20;;;35.80;70.30;;;;;;10393201;28;20303;-68
2022/10/16 10:49:19;;;;;;;4.33;1.50;;;37.40;60.00;;;;;;10445352;28;20227;-65
2022/10/16 10:54:53;;;;;;;2.77;1.27;;;37.50;56.90;;;;;;10401771;28;20247;-69
2022/10/16 11:00:21;;;;;;;3.90;1.90;;;37.80;53.50;;;;;;10394933;28;20223;-71
2022/10/16 11:05:21;;;;;;;5.93;4.80;;;38.10;51.70;;;;;;10398981;28;20235;-70
2022/10/16 11:10:26;;;;;;;3.40;1.60;;;37.20;52.40;;;;;;10389945;28;20220;-70
2022/10/16 11:15:32;;;;;;;2.30;2.10;;;32.60;60.40;;;;;;10391074;28;20230;-68
2022/10/16 11:20:40;;;;;;;3.53;1.60;;;28.80;75.60;;;;;;10381188;28;20251;-69
2022/10/16 11:25:42;;;;;;;4.70;1.60;;;26.30;87.20;;;;;;10393192;28;20714;-68
2022/10/16 11:30:46;;;;;;;1.50;1.40;;;25.10;94.00;;;;;;10389301;28;20232;-69
2022/10/16 11:36:06;;;;;;;3.67;1.80;;;24.50;98.60;;;;;;10393103;28;20234;-68
2022/10/16 11:41:15;;;;;;;3.30;2.40;;;24.10;99.90;;;;;;10395475;28;20239;-68
2022/10/16 11:46:21;;;;;;;4.00;1.87;;;23.80;99.90;;;;;;10395419;28;20602;-70
2022/10/16 11:51:44;;;;;;;2.30;1.60;;;24.00;99.90;;;;;;10397624;28;20345;-70
2022/10/16 11:56:48;;;;;;;2.40;1.77;;;24.00;99.90;;;;;;10397748;28;20221;-71
2022/10/16 12:02:30;;;;;;;4.70;2.00;;;23.90;99.90;;;;;;10390524;28;20230;-71
2022/10/16 12:07:39;;;;;;;1.83;1.47;;;23.60;99.90;;;;;;10381751;28;20879;-74
2022/10/16 12:12:40;;;;;;;1.77;1.67;;;23.30;99.90;;;;;;10393200;28;20218;-73
2022/10/16 12:17:40;;;;;;;4.87;1.93;;;23.20;99.90;;;;;;10396938;28;20238;-73
2022/10/16 12:22:50;;;;;;;3.40;1.97;;;22.90;99.90;;;;;;10383981;28;20258;-72
2022/10/16 12:27:57;;;;;;;3.33;1.70;;;22.70;99.90;;;;;;10399454;28;20230;-73
2022/10/16 12:33:06;;;;;;;2.17;2.00;;;22.60;99.90;;;;;;10392768;28;20275;-72
2022/10/16 12:38:30;;;;;;;2.37;1.47;;;22.40;99.90;;;;;;10401905;28;20283;-72
2022/10/16 12:43:46;;;;;;;1.77;1.50;;;22.10;99.90;;;;;;10406313;28;20241;-72
2022/10/16 12:48:48;;;;;;;1.50;1.40;;;22.10;99.90;;;;;;10406124;28;20257;-72
2022/10/16 12:54:23;;;;;;;4.30;1.97;;;22.00;99.90;;;;;;10401847;28;20696;-72
2022/10/16 12:59:51;;;;;;;2.83;2.00;;;21.80;99.90;;;;;;10383175;28;20256;-72
2022/10/16 13:04:58;;;;;;;2.73;1.83;;;21.90;99.90;;;;;;10393587;28;20240;-72
2022/10/16 13:10:17;;;;;;;2.67;1.57;;;22.20;99.90;;;;;;10399482;28;20230;-68
2022/10/16 13:15:37;;;;;;;2.90;1.80;;;22.40;99.90;;;;;;10398542;28;20226;-72
2022/10/16 13:21:21;;;;;;;4.13;1.93;;;22.50;99.90;;;;;;10400708;28;20227;-70
2022/10/16 13:26:27;;;;;;;2.17;1.80;;;22.70;99.90;;;;;;10400723;28;20225;-71
2022/10/16 13:31:31;;;;;;;5.70;2.00;;;22.60;99.90;;;;;;10399587;28;20356;-72
2022/10/16 13:36:44;;;;;;;3.07;2.17;;;22.20;99.90;;;;;;10399961;28;20230;-73
2022/10/16 13:41:45;;;;;;;3.00;2.07;;;21.90;99.90;;;;;;10400310;28;20784;-70
2022/10/16 13:46:46;;;;;;;3.57;2.67;;;21.60;99.90;;;;;;10399216;28;20276;-70
2022/10/16 13:51:58;;;;;;;2.70;2.40;;;21.50;99.90;;;;;;10394969;28;20272;-71
2022/10/16 13:57:05;;;;;;;4.70;2.30;;;21.20;99.90;;;;;;10388602;28;20230;-73
2022/10/16 14:02:19;;;;;;;3.13;2.13;;;21.00;99.90;;;;;;10392741;28;20312;-70
2022/10/16 14:07:38;;;;;;;4.67;2.30;;;20.90;99.90;;;;;;10396022;28;20255;-70
2022/10/16 14:12:44;;;;;;;3.37;2.13;;;20.70;99.90;;;;;;10390393;28;20225;-70
2022/10/16 14:17:50;;;;;;;3.23;2.10;;;20.60;99.90;;;;;;10396334;28;20224;-71
2022/10/16 14:23:18;;;;;;;3.60;2.90;;;20.60;99.90;;;;;;10379723;28;20251;-72
2022/10/16 14:28:22;;;;;;;2.60;2.40;;;20.70;99.90;;;;;;10394555;28;20651;-70
2022/10/16 14:33:28;;;;;;;2.67;2.20;;;20.80;99.90;;;;;;10380466;28;20229;-70
2022/10/16 14:38:30;;;;;;;4.53;2.20;;;20.80;99.90;;;;;;10392626;28;20309;-72
2022/10/16 14:43:36;;;;;;;3.57;2.37;;;20.70;99.90;;;;;;10402711;28;20225;-72
2022/10/16 14:48:42;;;;;;;4.63;2.17;;;20.50;99.90;;;;;;10394347;28;20599;-72
2022/10/16 14:53:42;;;;;;;2.27;1.97;;;20.40;99.90;;;;;;10388631;28;20244;-69
2022/10/16 14:58:44;;;;;;;4.70;2.50;;;20.30;99.90;;;;;;10395963;28;20319;-69
2022/10/16 15:03:44;;;;;;;4.33;2.57;;;20.30;99.90;;;;;;10395222;28;20217;-70
2022/10/16 15:08:45;;;;;;;5.03;2.37;;;20.20;99.90;;;;;;10390226;28;20685;-71
2022/10/16 15:13:46;;;;;;;2.80;2.40;;;20.20;99.90;;;;;;10396893;28;20232;-72
2022/10/16 15:18:47;;;;;;;3.60;2.20;;;20.20;99.90;;;;;;10393214;28;20226;-70
2022/10/16 15:23:48;;;;;;;4.33;2.57;;;20.20;99.90;;;;;;10393923;28;20213;-72
2022/10/16 15:28:49;;;;;;;4.73;2.37;;;20.30;99.90;;;;;;10394114;28;20228;-71
2022/10/16 15:33:55;;;;;;;2.40;2.20;;;20.30;99.90;;;;;;10395517;28;20223;-72
2022/10/16 15:38:57;;;;;;;4.57;2.20;;;20.30;99.90;;;;;;10383783;28;20221;-74
2022/10/16 15:43:57;;;;;;;4.13;2.70;;;20.30;99.90;;;;;;10389338;28;20230;-74
2022/10/16 15:48:58;;;;;;;3.37;2.10;;;20.20;99.90;;;;;;10390012;28;20615;-74
2022/10/16 15:54:01;;;;;;;4.00;2.60;;;20.10;99.90;;;;;;10389752;28;20229;-72
2022/10/16 15:59:02;;;;;;;5.63;2.67;;;20.00;99.90;;;;;;10394505;28;20306;-72
2022/10/16 16:04:04;;;;;;;3.97;2.57;;;19.80;99.90;;;;;;10410005;28;20282;-71
2022/10/16 16:09:05;;;;;;;5.00;2.47;;;19.70;99.90;;;;;;10442229;28;20316;-71
2022/10/16 16:14:06;;;;;;;3.33;2.33;;;19.60;99.90;;;;;;10450473;28;20220;-70
2022/10/16 16:19:08;;;;;;;6.93;3.50;;;19.40;99.90;;;;;;10450721;28;20292;-71
2022/10/16 16:24:09;;;;;;;5.73;2.90;;;19.30;99.90;;;;;;10448018;28;20278;-72
2022/10/16 16:29:15;;;;;;;2.70;2.50;;;19.20;99.90;;;;;;10450260;28;20752;-71
2022/10/16 16:34:15;;;;;;;4.40;2.83;;;19.10;99.90;;;;;;10448011;28;20691;-71
2022/10/16 16:39:16;;;;;;;4.30;2.90;;;19.00;99.90;;;;;;10450590;28;20224;-73
2022/10/16 16:44:17;;;;;;;5.33;2.73;;;18.90;99.90;;;;;;10448539;28;20297;-73
2022/10/16 16:49:17;;;;;;;9.53;3.40;;;18.90;99.90;;;;;;10449350;28;20687;-73
2022/10/16 16:54:18;;;;;;;6.50;3.00;;;18.90;99.90;;;;;;10452348;28;20204;-73
2022/10/16 16:59:21;;;;;;;5.37;3.10;;;18.80;99.90;;;;;;10449282;28;20235;-72
2022/10/16 17:04:22;;;;;;;3.10;2.70;;;18.80;99.90;;;;;;10449718;28;20224;-73
2022/10/16 17:09:23;;;;;;;5.33;2.70;;;18.70;99.90;;;;;;10431267;28;20224;-73
2022/10/16 17:14:23;;;;;;;5.93;2.73;;;18.60;99.90;;;;;;10426529;28;20296;-74
2022/10/16 17:19:24;;;;;;;3.03;2.73;;;18.50;99.90;;;;;;10411662;28;20232;-74
2022/10/16 17:24:28;;;;;;;4.10;2.90;;;18.40;99.90;;;;;;10415003;28;20232;-73
2022/10/16 17:29:29;;;;;;;5.10;4.17;;;18.40;99.90;;;;;;10445414;28;20327;-74
2022/10/16 17:34:30;;;;;;;10.83;6.57;;;18.30;99.90;;;;;;10423752;28;20223;-72
2022/10/16 17:39:30;;;;;;;9.83;6.43;;;18.30;99.90;;;;;;10441762;28;20699;-72
2022/10/16 17:44:31;;;;;;;12.47;7.57;;;18.10;99.90;;;;;;10442125;28;20232;-71
2022/10/16 17:49:31;;;;;;;16.53;8.00;;;18.10;99.90;;;;;;10427241;28;20227;-72
2022/10/16 17:54:32;;;;;;;7.20;4.97;;;18.00;99.90;;;;;;10436205;28;20216;-74
2022/10/16 17:59:33;;;;;;;11.67;4.73;;;17.90;99.90;;;;;;10446156;28;20225;-72
2022/10/16 18:04:33;;;;;;;12.27;4.20;;;17.70;99.90;;;;;;10432317;28;20607;-72
2022/10/16 18:09:34;;;;;;;9.80;4.77;;;17.60;99.90;;;;;;10401207;28;20224;-73
2022/10/16 18:14:35;;;;;;;8.87;4.97;;;17.50;99.90;;;;;;10398931;28;20221;-72
2022/10/16 18:19:35;;;;;;;7.73;4.97;;;17.30;99.90;;;;;;10394779;28;20220;-73
2022/10/16 18:24:36;;;;;;;6.53;4.83;;;17.10;99.90;;;;;;10400457;28;20215;-73
2022/10/16 18:29:37;;;;;;;5.80;4.30;;;16.90;99.90;;;;;;10387564;28;20225;-73
2022/10/16 18:34:37;;;;;;;6.40;4.27;;;16.80;99.90;;;;;;10389754;28;20244;-73
2022/10/16 18:39:38;;;;;;;4.63;4.07;;;16.70;99.90;;;;;;10392754;28;20220;-72
2022/10/16 18:44:38;;;;;;;10.07;5.37;;;16.60;99.90;;;;;;10392871;28;20315;-72
2022/10/16 18:49:39;;;;;;;11.17;4.50;;;16.50;99.90;;;;;;10399116;28;20366;-72
2022/10/16 18:54:39;;;;;;;6.93;4.10;;;16.60;99.90;;;;;;10396365;28;20217;-72
2022/10/16 18:59:40;;;;;;;7.23;4.13;;;16.70;99.90;;;;;;10400159;28;20221;-73
2022/10/16 19:04:41;;;;;;;8.70;4.53;;;16.70;99.90;;;;;;10390675;28;20212;-74
2022/10/16 19:09:41;;;;;;;11.40;4.57;;;16.80;99.90;;;;;;10393745;28;20278;-72
2022/10/16 19:14:42;;;;;;;9.33;4.53;;;16.70;99.90;;;;;;10374357;28;20220;-72
2022/10/16 19:19:43;;;;;;;8.43;4.10;;;16.70;99.90;;;;;;10392587;28;20278;-72
2022/10/16 19:24:43;;;;;;;5.63;4.30;;;16.70;99.90;;;;;;10389514;28;20216;-71
2022/10/16 19:29:44;;;;;;;6.83;4.43;;;16.60;99.90;;;;;;10436759;28;20246;-71
2022/10/16 19:34:49;;;;;;;9.80;4.57;;;16.50;99.90;;;;;;10393393;28;20227;-72
2022/10/16 19:39:53;;;;;;;9.00;4.43;;;16.40;99.90;;;;;;10393759;28;20703;-72
2022/10/16 19:44:54;;;;;;;7.53;4.40;;;16.40;99.90;;;;;;10395493;28;20232;-71
2022/10/16 19:49:54;;;;;;;12.27;4.10;;;16.40;99.90;;;;;;10388717;28;20703;-71
2022/10/16 19:54:56;;;;;;;13.17;4.00;;;16.40;99.90;;;;;;10403302;28;20221;-70
2022/10/16 19:59:57;;;;;;;10.47;3.50;;;16.40;99.90;;;;;;10387427;28;20213;-69
2022/10/16 20:04:57;;;;;;;7.50;3.10;;;16.50;99.90;;;;;;10402210;28;20223;-70
2022/10/16 20:10:01;;;;;;;6.00;3.23;;;16.50;99.90;;;;;;10391086;28;20730;-72
2022/10/16 20:15:02;;;;;;;7.27;4.70;;;16.50;99.90;;;;;;10398076;28;20713;-72
2022/10/16 20:20:03;;;;;;;9.37;3.40;;;16.50;99.90;;;;;;10381742;28;20262;-74
2022/10/16 20:25:04;;;;;;;5.20;3.83;;;16.50;99.90;;;;;;10402618;28;20250;-73
2022/10/16 20:30:05;;;;;;;7.80;3.77;;;16.50;99.90;;;;;;10435898;28;20231;-72
2022/10/16 20:35:06;;;;;;;7.33;3.40;;;16.40;99.90;;;;;;10409181;28;20280;-75
2022/10/16 20:40:16;;;;;;;8.73;3.60;;;16.40;99.90;;;;;;10380871;28;20776;-75
2022/10/16 20:45:17;;;;;;;5.87;3.70;;;16.30;99.90;;;;;;10405115;28;20207;-76
2022/10/16 20:50:21;;;;;;;7.03;3.90;;;16.10;99.90;;;;;;10393252;28;20596;-74
2022/10/16 20:55:21;;;;;;;6.73;4.53;;;15.90;99.90;;;;;;10397297;28;20192;-70
2022/10/16 21:00:22;;;;;;;11.20;5.77;;;15.70;99.90;;;;;;10396418;28;20827;-74
2022/10/16 21:05:23;;;;;;;10.17;6.40;;;15.60;99.90;;;;;;10403529;28;20794;-73
2022/10/16 21:10:23;;;;;;;9.60;5.17;;;15.50;99.90;;;;;;10397091;28;20754;-74
2022/10/16 21:15:24;;;;;;;8.80;5.10;;;15.30;99.90;;;;;;10406671;28;20252;-73
2022/10/16 21:20:24;;;;;;;11.70;5.40;;;15.20;99.90;;;;;;10390097;28;20230;-73
2022/10/16 21:25:25;;;;;;;10.20;5.63;;;15.10;99.90;;;;;;10402236;28;20235;-74
2022/10/16 21:30:25;;;;;;;12.00;5.87;;;15.10;99.90;;;;;;10394773;28;20263;-73
2022/10/16 21:35:26;;;;;;;8.57;5.33;;;15.00;99.90;;;;;;10399847;28;20254;-73
2022/10/16 21:40:28;;;;;;;11.27;5.47;;;14.90;99.90;;;;;;10389973;28;20230;-73
2022/10/16 21:45:30;;;;;;;5.37;4.80;;;14.90;99.90;;;;;;10402321;28;20592;-73
2022/10/16 21:50:30;;;;;;;10.10;5.10;;;14.90;99.90;;;;;;10394645;28;20235;-73
2022/10/16 21:55:34;;;;;;;6.87;4.80;;;14.90;99.90;;;;;;10387768;28;20307;-73
2022/10/16 22:00:35;;;;;;;7.03;5.20;;;14.90;99.90;;;;;;10390455;28;20687;-74
2022/10/16 22:05:36;;;;;;;7.17;4.33;;;14.80;99.90;;;;;;10404424;28;20236;-74
2022/10/16 22:10:36;;;;;;;8.50;5.20;;;14.70;99.90;;;;;;10399378;28;20228;-74
2022/10/16 22:15:37;;;;;;;7.00;4.90;;;14.80;99.90;;;;;;10397172;28;20310;-74
2022/10/16 22:20:46;;;;;;;8.40;5.60;;;14.70;99.90;;;;;;10403920;28;20229;-73
2022/10/16 22:25:47;;;;;;;5.87;4.87;;;14.60;99.90;;;;;;10401110;28;20222;-72
2022/10/16 22:30:47;;;;;;;7.63;4.53;;;14.60;99.90;;;;;;10440450;28;20230;-72
2022/10/16 22:35:48;;;;;;;7.37;5.20;;;14.50;99.90;;;;;;10428182;28;20219;-74
2022/10/16 22:40:48;;;;;;;7.77;5.23;;;14.40;99.90;;;;;;10392620;28;20705;-74
2022/10/16 22:45:49;;;;;;;9.33;5.53;;;14.40;99.90;;;;;;10396831;28;20239;-75
2022/10/16 22:50:49;;;;;;;12.00;7.40;;;14.40;99.90;;;;;;10398544;28;20655;-74
2022/10/16 22:55:50;;;;;;;8.83;6.20;;;14.40;99.90;;;;;;10392383;28;20628;-74
2022/10/16 23:00:51;;;;;;;10.27;5.97;;;14.40;99.90;;;;;;10392159;28;20710;-74
2022/10/16 23:05:51;;;;;;;12.50;5.50;;;14.30;99.90;;;;;;10425904;28;20235;-73
2022/10/16 23:10:52;;;;;;;8.03;4.60;;;14.40;99.90;;;;;;10391936;28;20235;-73
2022/10/16 23:15:53;;;;;;;5.73;4.40;;;14.40;99.90;;;;;;10406382;28;20234;-74
2022/10/16 23:20:53;;;;;;;7.07;4.67;;;14.30;99.90;;;;;;10388438;28;20282;-73
2022/10/16 23:25:54;;;;;;;5.10;4.30;;;14.20;99.90;;;;;;10391681;28;20273;-73
2022/10/16 23:30:54;;;;;;;6.57;4.50;;;14.20;99.90;;;;;;10391714;28;20284;-74
2022/10/16 23:35:55;;;;;;;4.70;4.20;;;14.10;99.90;;;;;;10392799;28;21720;-74
2022/10/16 23:40:55;;;;;;;8.17;5.00;;;14.10;99.90;;;;;;10405602;28;20291;-74
2022/10/16 23:45:56;;;;;;;7.50;5.27;;;14.00;99.90;;;;;;10384360;28;20251;-74
2022/10/16 23:50:57;;;;;;;5.63;4.83;;;14.10;99.90;;;;;;10389659;28;20633;-73
2022/10/16 23:55:57;;;;;;;5.87;5.00;;;14.00;99.90;;;;;;10390770;28;20222;-73
